sensor_id;sensor_type;location;lat;lon;timestamp;pressure;altitude;pressure_sealevel;temperature;humidity
33185;BME280;19550;42.872;25.494;2023-04-07T00:01:44;96131.34;;;4.94;73.76
33185;BME280;19550;42.872;25.494;2023-04-07T00:04:11;96118.59;;;5.03;77.04
33185;BME280;19550;42.872;25.494;2023-04-07T00:06:38;96128.84;;;4.98;77.85
33185;BME280;19550;42.872;25.494;2023-04-07T00:09:05;96121.34;;;5.03;78.95
33185;BME280;19550;42.872;25.494;2023-04-07T00:11:32;96124.38;;;5.02;73.64
33185;BME280;19550;42.872;25.494;2023-04-07T00:14:00;96114.03;;;4.94;78.11
33185;BME280;19550;42.872;25.494;2023-04-07T00:16:27;96116.03;;;4.88;82.55
33185;BME280;19550;42.872;25.494;2023-04-07T00:18:54;96121.47;;;4.93;78.61
33185;BME280;19550;42.872;25.494;2023-04-07T00:21:21;96127.56;;;4.90;79.12
33185;BME280;19550;42.872;25.494;2023-04-07T00:23:48;96128.06;;;4.92;78.07
33185;BME280;19550;42.872;25.494;2023-04-07T00:26:15;96126.09;;;4.98;77.27
33185;BME280;19550;42.872;25.494;2023-04-07T00:28:41;96118.03;;;4.83;81.15
33185;BME280;19550;42.872;25.494;2023-04-07T00:31:09;96116.50;;;4.95;78.73
33185;BME280;19550;42.872;25.494;2023-04-07T00:33:36;96117.03;;;4.97;78.56
33185;BME280;19550;42.872;25.494;2023-04-07T00:36:04;96120.94;;;4.91;79.82
33185;BME280;19550;42.872;25.494;2023-04-07T00:38:30;96126.78;;;4.85;84.26
33185;BME280;19550;42.872;25.494;2023-04-07T00:40:58;96110.53;;;4.88;79.25
33185;BME280;19550;42.872;25.494;2023-04-07T00:43:25;96124.34;;;4.83;76.69
33185;BME280;19550;42.872;25.494;2023-04-07T00:45:52;96115.81;;;4.85;83.78
33185;BME280;19550;42.872;25.494;2023-04-07T00:48:20;96121.25;;;4.90;77.04
33185;BME280;19550;42.872;25.494;2023-04-07T00:50:47;96115.75;;;4.90;79.33
33185;BME280;19550;42.872;25.494;2023-04-07T00:53:15;96112.41;;;4.93;78.67
33185;BME280;19550;42.872;25.494;2023-04-07T00:55:42;96120.47;;;4.84;75.71
33185;BME280;19550;42.872;25.494;2023-04-07T00:58:08;96118.56;;;4.85;79.67
33185;BME280;19550;42.872;25.494;2023-04-07T01:00:41;96108.13;;;4.82;80.75
33185;BME280;19550;42.872;25.494;2023-04-07T01:03:17;96112.63;;;4.72;73.95
33185;BME280;19550;42.872;25.494;2023-04-07T01:05:52;96104.84;;;4.79;79.66
33185;BME280;19550;42.872;25.494;2023-04-07T01:08:24;96109.59;;;4.74;81.53
33185;BME280;19550;42.872;25.494;2023-04-07T01:10:58;96107.19;;;4.67;81.73
33185;BME280;19550;42.872;25.494;2023-04-07T01:13:33;96113.28;;;4.64;78.63
33185;BME280;19550;42.872;25.494;2023-04-07T01:16:04;96107.47;;;4.66;79.82
33185;BME280;19550;42.872;25.494;2023-04-07T01:18:34;96107.66;;;4.51;82.99
33185;BME280;19550;42.872;25.494;2023-04-07T01:21:05;96103.59;;;4.43;79.63
33185;BME280;19550;42.872;25.494;2023-04-07T01:23:40;96109.31;;;4.47;79.72
33185;BME280;19550;42.872;25.494;2023-04-07T01:26:18;96107.88;;;4.54;78.96
33185;BME280;19550;42.872;25.494;2023-04-07T01:28:56;96106.53;;;4.52;80.31
33185;BME280;19550;42.872;25.494;2023-04-07T01:31:28;96107.06;;;4.54;77.63
33185;BME280;19550;42.872;25.494;2023-04-07T01:33:58;96110.63;;;4.54;79.87
33185;BME280;19550;42.872;25.494;2023-04-07T01:36:27;96106.28;;;4.48;81.05
33185;BME280;19550;42.872;25.494;2023-04-07T01:38:57;96104.41;;;4.44;80.42
33185;BME280;19550;42.872;25.494;2023-04-07T01:41:25;96106.09;;;4.39;81.67
33185;BME280;19550;42.872;25.494;2023-04-07T01:43:53;96098.41;;;4.42;82.08
33185;BME280;19550;42.872;25.494;2023-04-07T01:46:20;96102.84;;;4.32;84.50
33185;BME280;19550;42.872;25.494;2023-04-07T01:48:50;96102.56;;;4.34;83.08
33185;BME280;19550;42.872;25.494;2023-04-07T01:51:19;96098.44;;;4.36;85.10
33185;BME280;19550;42.872;25.494;2023-04-07T01:53:46;96096.47;;;4.42;86.16
33185;BME280;19550;42.872;25.494;2023-04-07T01:56:13;96096.00;;;4.35;87.08
33185;BME280;19550;42.872;25.494;2023-04-07T01:58:42;96094.59;;;4.37;87.14
33185;BME280;19550;42.872;25.494;2023-04-07T02:01:09;96088.47;;;4.46;85.11
33185;BME280;19550;42.872;25.494;2023-04-07T02:03:42;96088.53;;;4.40;87.32
33185;BME280;19550;42.872;25.494;2023-04-07T02:06:16;96080.88;;;4.37;87.93
33185;BME280;19550;42.872;25.494;2023-04-07T02:08:48;96079.53;;;4.35;90.64
33185;BME280;19550;42.872;25.494;2023-04-07T02:11:17;96091.44;;;4.25;91.47
33185;BME280;19550;42.872;25.494;2023-04-07T02:13:45;96094.69;;;4.27;90.20
33185;BME280;19550;42.872;25.494;2023-04-07T02:16:14;96090.34;;;4.21;88.06
33185;BME280;19550;42.872;25.494;2023-04-07T02:18:43;96091.13;;;4.27;90.13
33185;BME280;19550;42.872;25.494;2023-04-07T02:21:14;96089.19;;;4.27;88.47
33185;BME280;19550;42.872;25.494;2023-04-07T02:23:41;96089.06;;;4.43;87.17
33185;BME280;19550;42.872;25.494;2023-04-07T02:26:08;96085.84;;;4.35;89.00
33185;BME280;19550;42.872;25.494;2023-04-07T02:28:36;96080.56;;;4.44;89.14
33185;BME280;19550;42.872;25.494;2023-04-07T02:31:02;96084.69;;;4.42;87.60
33185;BME280;19550;42.872;25.494;2023-04-07T02:33:29;96083.03;;;4.40;87.97
33185;BME280;19550;42.872;25.494;2023-04-07T02:35:56;96086.25;;;4.48;87.44
33185;BME280;19550;42.872;25.494;2023-04-07T02:38:24;96083.28;;;4.44;88.18
33185;BME280;19550;42.872;25.494;2023-04-07T02:40:51;96092.63;;;4.43;87.11
33185;BME280;19550;42.872;25.494;2023-04-07T02:43:19;96083.84;;;4.41;89.60
33185;BME280;19550;42.872;25.494;2023-04-07T02:45:45;96091.53;;;4.39;92.14
33185;BME280;19550;42.872;25.494;2023-04-07T02:48:12;96100.75;;;4.24;94.25
33185;BME280;19550;42.872;25.494;2023-04-07T02:50:39;96093.97;;;4.17;92.19
33185;BME280;19550;42.872;25.494;2023-04-07T02:53:06;96090.63;;;4.20;92.01
33185;BME280;19550;42.872;25.494;2023-04-07T02:55:35;96099.28;;;4.37;90.03
33185;BME280;19550;42.872;25.494;2023-04-07T02:58:01;96089.13;;;4.37;88.75
33185;BME280;19550;42.872;25.494;2023-04-07T03:00:28;96094.63;;;4.32;91.06
33185;BME280;19550;42.872;25.494;2023-04-07T03:02:55;96094.19;;;4.25;91.93
33185;BME280;19550;42.872;25.494;2023-04-07T03:05:22;96098.63;;;4.16;91.45
33185;BME280;19550;42.872;25.494;2023-04-07T03:07:49;96096.94;;;4.20;89.08
33185;BME280;19550;42.872;25.494;2023-04-07T03:10:16;96098.03;;;4.24;91.33
33185;BME280;19550;42.872;25.494;2023-04-07T03:12:44;96103.53;;;4.19;91.84
33185;BME280;19550;42.872;25.494;2023-04-07T03:15:11;96094.53;;;4.14;89.63
33185;BME280;19550;42.872;25.494;2023-04-07T03:17:37;96102.19;;;4.17;90.18
33185;BME280;19550;42.872;25.494;2023-04-07T03:20:06;96100.78;;;4.19;93.88
33185;BME280;19550;42.872;25.494;2023-04-07T03:22:33;96104.41;;;4.15;91.28
33185;BME280;19550;42.872;25.494;2023-04-07T03:25:00;96102.75;;;4.14;92.23
33185;BME280;19550;42.872;25.494;2023-04-07T03:27:26;96109.88;;;4.15;91.66
33185;BME280;19550;42.872;25.494;2023-04-07T03:29:55;96110.16;;;4.13;93.89
33185;BME280;19550;42.872;25.494;2023-04-07T03:32:21;96116.25;;;4.10;95.24
33185;BME280;19550;42.872;25.494;2023-04-07T03:34:48;96103.09;;;4.07;94.79
33185;BME280;19550;42.872;25.494;2023-04-07T03:37:15;96117.38;;;4.04;95.69
33185;BME280;19550;42.872;25.494;2023-04-07T03:39:42;96103.41;;;4.00;94.56
33185;BME280;19550;42.872;25.494;2023-04-07T03:42:08;96111.84;;;4.09;94.71
33185;BME280;19550;42.872;25.494;2023-04-07T03:44:35;96109.50;;;3.92;94.65
33185;BME280;19550;42.872;25.494;2023-04-07T03:47:03;96110.31;;;3.93;94.24
33185;BME280;19550;42.872;25.494;2023-04-07T03:49:30;96123.25;;;3.87;95.21
33185;BME280;19550;42.872;25.494;2023-04-07T03:51:57;96115.84;;;3.88;93.87
33185;BME280;19550;42.872;25.494;2023-04-07T03:54:24;96122.94;;;3.94;93.11
33185;BME280;19550;42.872;25.494;2023-04-07T03:56:51;96124.50;;;4.05;94.17
33185;BME280;19550;42.872;25.494;2023-04-07T03:59:18;96116.94;;;3.87;96.21
33185;BME280;19550;42.872;25.494;2023-04-07T04:01:44;96130.88;;;3.95;94.50
33185;BME280;19550;42.872;25.494;2023-04-07T04:04:13;96135.22;;;4.02;94.82
33185;BME280;19550;42.872;25.494;2023-04-07T04:06:40;96141.75;;;4.06;93.01
33185;BME280;19550;42.872;25.494;2023-04-07T04:09:06;96138.25;;;4.00;94.79
33185;BME280;19550;42.872;25.494;2023-04-07T04:11:33;96142.06;;;3.99;94.41
33185;BME280;19550;42.872;25.494;2023-04-07T04:14:00;96139.50;;;4.13;94.29
33185;BME280;19550;42.872;25.494;2023-04-07T04:16:27;96136.53;;;4.09;94.46
33185;BME280;19550;42.872;25.494;2023-04-07T04:18:55;96140.31;;;4.13;95.28
33185;BME280;19550;42.872;25.494;2023-04-07T04:21:24;96141.19;;;4.09;95.77
33185;BME280;19550;42.872;25.494;2023-04-07T04:23:51;96143.22;;;3.98;97.17
33185;BME280;19550;42.872;25.494;2023-04-07T04:26:18;96147.56;;;3.99;95.74
33185;BME280;19550;42.872;25.494;2023-04-07T04:28:45;96140.97;;;4.05;95.10
33185;BME280;19550;42.872;25.494;2023-04-07T04:31:12;96149.19;;;4.00;96.13
33185;BME280;19550;42.872;25.494;2023-04-07T04:33:39;96151.63;;;4.07;96.03
33185;BME280;19550;42.872;25.494;2023-04-07T04:36:06;96151.06;;;4.10;94.84
33185;BME280;19550;42.872;25.494;2023-04-07T04:38:34;96147.25;;;4.06;94.29
33185;BME280;19550;42.872;25.494;2023-04-07T04:41:01;96153.81;;;4.10;93.26
33185;BME280;19550;42.872;25.494;2023-04-07T04:43:27;96150.69;;;4.21;93.83
33185;BME280;19550;42.872;25.494;2023-04-07T04:45:55;96155.34;;;4.21;94.03
33185;BME280;19550;42.872;25.494;2023-04-07T04:48:22;96155.09;;;4.22;93.96
33185;BME280;19550;42.872;25.494;2023-04-07T04:50:48;96155.25;;;4.36;93.55
33185;BME280;19550;42.872;25.494;2023-04-07T04:53:15;96159.72;;;4.56;92.44
33185;BME280;19550;42.872;25.494;2023-04-07T04:55:43;96164.19;;;4.47;92.51
33185;BME280;19550;42.872;25.494;2023-04-07T04:58:16;96162.47;;;4.56;92.86
33185;BME280;19550;42.872;25.494;2023-04-07T05:00:43;96164.41;;;4.55;92.37
33185;BME280;19550;42.872;25.494;2023-04-07T05:03:10;96159.19;;;4.54;92.35
33185;BME280;19550;42.872;25.494;2023-04-07T05:05:37;96167.84;;;4.66;91.26
33185;BME280;19550;42.872;25.494;2023-04-07T05:08:04;96161.25;;;4.72;90.83
33185;BME280;19550;42.872;25.494;2023-04-07T05:10:31;96167.25;;;4.74;89.45
33185;BME280;19550;42.872;25.494;2023-04-07T05:12:59;96171.53;;;4.85;89.26
33185;BME280;19550;42.872;25.494;2023-04-07T05:15:26;96168.97;;;4.94;86.40
33185;BME280;19550;42.872;25.494;2023-04-07T05:17:53;96174.81;;;4.87;86.90
33185;BME280;19550;42.872;25.494;2023-04-07T05:20:20;96170.59;;;4.95;88.85
33185;BME280;19550;42.872;25.494;2023-04-07T05:22:47;96170.25;;;5.01;89.13
33185;BME280;19550;42.872;25.494;2023-04-07T05:25:14;96181.31;;;4.96;89.23
33185;BME280;19550;42.872;25.494;2023-04-07T05:27:41;96181.25;;;5.01;89.84
33185;BME280;19550;42.872;25.494;2023-04-07T05:30:09;96180.56;;;5.14;89.61
33185;BME280;19550;42.872;25.494;2023-04-07T05:32:37;96181.38;;;5.39;87.89
33185;BME280;19550;42.872;25.494;2023-04-07T05:35:04;96179.75;;;5.38;88.55
33185;BME280;19550;42.872;25.494;2023-04-07T05:37:31;96185.03;;;5.53;86.91
33185;BME280;19550;42.872;25.494;2023-04-07T05:39:58;96177.25;;;5.60;85.99
33185;BME280;19550;42.872;25.494;2023-04-07T05:42:25;96181.53;;;5.71;86.26
33185;BME280;19550;42.872;25.494;2023-04-07T05:44:51;96188.63;;;5.72;86.78
33185;BME280;19550;42.872;25.494;2023-04-07T05:47:20;96187.00;;;5.95;86.33
33185;BME280;19550;42.872;25.494;2023-04-07T05:49:46;96182.09;;;6.11;84.86
33185;BME280;19550;42.872;25.494;2023-04-07T05:52:13;96174.75;;;6.25;84.29
33185;BME280;19550;42.872;25.494;2023-04-07T05:54:40;96172.94;;;6.34;83.20
33185;BME280;19550;42.872;25.494;2023-04-07T05:57:07;96172.47;;;6.46;82.08
33185;BME280;19550;42.872;25.494;2023-04-07T05:59:34;96176.13;;;6.73;78.72
33185;BME280;19550;42.872;25.494;2023-04-07T06:02:01;96173.38;;;6.73;76.88
33185;BME280;19550;42.872;25.494;2023-04-07T06:04:29;96177.13;;;6.96;74.11
33185;BME280;19550;42.872;25.494;2023-04-07T06:06:57;96175.81;;;7.07;73.05
33185;BME280;19550;42.872;25.494;2023-04-07T06:09:24;96177.03;;;7.15;71.15
33185;BME280;19550;42.872;25.494;2023-04-07T06:11:51;96179.19;;;7.18;64.81
33185;BME280;19550;42.872;25.494;2023-04-07T06:14:17;96172.06;;;7.17;63.77
33185;BME280;19550;42.872;25.494;2023-04-07T06:16:45;96181.34;;;7.21;61.62
33185;BME280;19550;42.872;25.494;2023-04-07T06:19:11;96170.03;;;7.50;60.32
33185;BME280;19550;42.872;25.494;2023-04-07T06:21:40;96163.97;;;7.89;59.40
33185;BME280;19550;42.872;25.494;2023-04-07T06:24:07;96177.06;;;7.70;56.98
33185;BME280;19550;42.872;25.494;2023-04-07T06:26:34;96175.81;;;7.89;56.79
33185;BME280;19550;42.872;25.494;2023-04-07T06:29:01;96175.13;;;7.84;55.41
33185;BME280;19550;42.872;25.494;2023-04-07T06:31:28;96178.09;;;7.60;54.28
33185;BME280;19550;42.872;25.494;2023-04-07T06:33:55;96186.75;;;7.67;53.98
33185;BME280;19550;42.872;25.494;2023-04-07T06:36:21;96184.00;;;7.67;55.25
33185;BME280;19550;42.872;25.494;2023-04-07T06:38:50;96191.88;;;7.60;54.30
33185;BME280;19550;42.872;25.494;2023-04-07T06:41:17;96194.84;;;7.64;54.52
33185;BME280;19550;42.872;25.494;2023-04-07T06:43:46;96187.38;;;7.78;54.54
33185;BME280;19550;42.872;25.494;2023-04-07T06:46:13;96192.00;;;8.18;53.88
33185;BME280;19550;42.872;25.494;2023-04-07T06:48:40;96195.41;;;8.51;52.33
33185;BME280;19550;42.872;25.494;2023-04-07T06:51:07;96190.84;;;8.69;51.15
33185;BME280;19550;42.872;25.494;2023-04-07T06:53:34;96193.78;;;8.50;52.78
33185;BME280;19550;42.872;25.494;2023-04-07T06:56:07;96193.84;;;8.36;52.94
33185;BME280;19550;42.872;25.494;2023-04-07T06:58:34;96195.66;;;8.27;53.70
33185;BME280;19550;42.872;25.494;2023-04-07T07:01:01;96202.44;;;8.35;52.02
33185;BME280;19550;42.872;25.494;2023-04-07T07:03:29;96198.13;;;8.29;51.29
33185;BME280;19550;42.872;25.494;2023-04-07T07:05:56;96189.13;;;8.23;52.62
33185;BME280;19550;42.872;25.494;2023-04-07T07:08:23;96202.13;;;8.36;50.76
33185;BME280;19550;42.872;25.494;2023-04-07T07:10:50;96203.13;;;8.41;51.57
33185;BME280;19550;42.872;25.494;2023-04-07T07:13:22;96201.47;;;8.40;51.91
33185;BME280;19550;42.872;25.494;2023-04-07T07:15:49;96207.09;;;8.48;51.00
33185;BME280;19550;42.872;25.494;2023-04-07T07:18:16;96207.25;;;8.52;51.18
33185;BME280;19550;42.872;25.494;2023-04-07T07:20:43;96202.78;;;8.56;51.10
33185;BME280;19550;42.872;25.494;2023-04-07T07:23:10;96215.69;;;8.91;51.05
33185;BME280;19550;42.872;25.494;2023-04-07T07:25:37;96205.91;;;8.85;49.63
33185;BME280;19550;42.872;25.494;2023-04-07T07:28:04;96210.00;;;8.88;51.53
33185;BME280;19550;42.872;25.494;2023-04-07T07:30:32;96201.31;;;9.03;50.64
33185;BME280;19550;42.872;25.494;2023-04-07T07:32:59;96215.38;;;9.15;51.35
33185;BME280;19550;42.872;25.494;2023-04-07T07:35:26;96213.59;;;9.19;49.61
33185;BME280;19550;42.872;25.494;2023-04-07T07:37:53;96209.56;;;9.25;50.50
33185;BME280;19550;42.872;25.494;2023-04-07T07:40:19;96211.94;;;9.09;49.15
33185;BME280;19550;42.872;25.494;2023-04-07T07:42:46;96219.03;;;9.02;51.10
33185;BME280;19550;42.872;25.494;2023-04-07T07:45:13;96215.97;;;9.03;50.78
33185;BME280;19550;42.872;25.494;2023-04-07T07:47:43;96206.34;;;9.01;50.66
33185;BME280;19550;42.872;25.494;2023-04-07T07:50:10;96224.94;;;8.87;50.17
33185;BME280;19550;42.872;25.494;2023-04-07T07:52:37;96227.00;;;8.59;50.52
33185;BME280;19550;42.872;25.494;2023-04-07T07:55:04;96221.34;;;8.86;51.75
33185;BME280;19550;42.872;25.494;2023-04-07T07:57:31;96218.22;;;8.79;50.73
33185;BME280;19550;42.872;25.494;2023-04-07T07:59:58;96220.66;;;8.81;49.66
33185;BME280;19550;42.872;25.494;2023-04-07T08:02:25;96220.50;;;8.77;49.42
33185;BME280;19550;42.872;25.494;2023-04-07T08:04:57;96211.38;;;8.99;50.36
33185;BME280;19550;42.872;25.494;2023-04-07T08:07:24;96221.28;;;9.22;51.35
33185;BME280;19550;42.872;25.494;2023-04-07T08:09:51;96223.28;;;9.30;50.08
33185;BME280;19550;42.872;25.494;2023-04-07T08:12:18;96222.56;;;9.47;51.14
33185;BME280;19550;42.872;25.494;2023-04-07T08:14:45;96213.88;;;9.40;50.22
33185;BME280;19550;42.872;25.494;2023-04-07T08:17:12;96216.75;;;9.26;49.03
33185;BME280;19550;42.872;25.494;2023-04-07T08:19:39;96212.13;;;9.44;49.14
33185;BME280;19550;42.872;25.494;2023-04-07T08:22:07;96203.59;;;9.63;49.41
33185;BME280;19550;42.872;25.494;2023-04-07T08:24:34;96207.06;;;9.85;47.94
33185;BME280;19550;42.872;25.494;2023-04-07T08:27:01;96207.22;;;10.20;48.08
33185;BME280;19550;42.872;25.494;2023-04-07T08:29:27;96190.63;;;10.71;48.99
33185;BME280;19550;42.872;25.494;2023-04-07T08:31:54;96193.03;;;11.07;47.16
33185;BME280;19550;42.872;25.494;2023-04-07T08:34:21;96190.25;;;11.16;47.36
33185;BME280;19550;42.872;25.494;2023-04-07T08:36:48;96189.44;;;11.15;47.45
33185;BME280;19550;42.872;25.494;2023-04-07T08:39:16;96187.63;;;11.11;46.96
33185;BME280;19550;42.872;25.494;2023-04-07T08:41:44;96182.13;;;10.85;47.23
33185;BME280;19550;42.872;25.494;2023-04-07T08:44:14;96184.09;;;11.02;47.28
33185;BME280;19550;42.872;25.494;2023-04-07T08:46:42;96173.66;;;10.73;47.48
33185;BME280;19550;42.872;25.494;2023-04-07T08:49:10;96185.25;;;10.75;47.74
33185;BME280;19550;42.872;25.494;2023-04-07T08:51:44;96185.22;;;10.92;48.39
33185;BME280;19550;42.872;25.494;2023-04-07T08:54:13;96178.03;;;10.91;49.35
33185;BME280;19550;42.872;25.494;2023-04-07T08:56:41;96168.81;;;11.42;48.12
33185;BME280;19550;42.872;25.494;2023-04-07T08:59:10;96163.59;;;11.79;47.60
33185;BME280;19550;42.872;25.494;2023-04-07T09:01:38;96183.72;;;12.05;48.14
33185;BME280;19550;42.872;25.494;2023-04-07T09:04:06;96175.47;;;11.50;47.39
33185;BME280;19550;42.872;25.494;2023-04-07T09:06:34;96171.69;;;11.54;47.96
33185;BME280;19550;42.872;25.494;2023-04-07T09:09:01;96174.19;;;11.85;46.93
33185;BME280;19550;42.872;25.494;2023-04-07T09:11:34;96181.56;;;11.73;46.85
33185;BME280;19550;42.872;25.494;2023-04-07T09:14:03;96188.75;;;11.19;47.63
33185;BME280;19550;42.872;25.494;2023-04-07T09:16:30;96188.63;;;11.15;48.92
33185;BME280;19550;42.872;25.494;2023-04-07T09:18:56;96191.63;;;11.48;47.48
33185;BME280;19550;42.872;25.494;2023-04-07T09:21:24;96196.75;;;11.20;48.25
33185;BME280;19550;42.872;25.494;2023-04-07T09:23:51;96190.38;;;11.28;47.65
33185;BME280;19550;42.872;25.494;2023-04-07T09:26:20;96192.03;;;11.29;49.81
33185;BME280;19550;42.872;25.494;2023-04-07T09:28:49;96190.56;;;11.23;49.17
33185;BME280;19550;42.872;25.494;2023-04-07T09:31:17;96199.97;;;11.39;49.95
33185;BME280;19550;42.872;25.494;2023-04-07T09:33:45;96195.88;;;11.92;48.99
33185;BME280;19550;42.872;25.494;2023-04-07T09:36:12;96190.78;;;12.03;45.45
33185;BME280;19550;42.872;25.494;2023-04-07T09:38:40;96185.19;;;11.65;47.25
33185;BME280;19550;42.872;25.494;2023-04-07T09:41:08;96192.13;;;11.50;47.19
33185;BME280;19550;42.872;25.494;2023-04-07T09:43:37;96189.06;;;11.34;48.05
33185;BME280;19550;42.872;25.494;2023-04-07T09:46:09;96185.06;;;11.61;47.53
33185;BME280;19550;42.872;25.494;2023-04-07T09:48:37;96184.44;;;11.47;48.27
33185;BME280;19550;42.872;25.494;2023-04-07T09:51:05;96186.63;;;11.79;48.80
33185;BME280;19550;42.872;25.494;2023-04-07T09:53:46;96185.06;;;11.99;45.83
33185;BME280;19550;42.872;25.494;2023-04-07T09:56:14;96193.72;;;11.51;47.41
33185;BME280;19550;42.872;25.494;2023-04-07T09:58:43;96194.22;;;11.53;48.58
33185;BME280;19550;42.872;25.494;2023-04-07T10:01:10;96185.41;;;12.27;48.70
33185;BME280;19550;42.872;25.494;2023-04-07T10:03:39;96179.13;;;12.80;46.35
33185;BME280;19550;42.872;25.494;2023-04-07T10:06:06;96196.66;;;12.01;46.00
33185;BME280;19550;42.872;25.494;2023-04-07T10:08:35;96202.44;;;11.32;47.49
33185;BME280;19550;42.872;25.494;2023-04-07T10:11:02;96202.50;;;11.15;47.24
33185;BME280;19550;42.872;25.494;2023-04-07T10:13:32;96197.28;;;11.05;48.89
33185;BME280;19550;42.872;25.494;2023-04-07T10:16:02;96188.84;;;11.57;47.99
33185;BME280;19550;42.872;25.494;2023-04-07T10:18:29;96191.38;;;11.79;49.49
33185;BME280;19550;42.872;25.494;2023-04-07T10:20:59;96185.19;;;11.65;48.04
33185;BME280;19550;42.872;25.494;2023-04-07T10:23:33;96187.81;;;11.70;48.60
33185;BME280;19550;42.872;25.494;2023-04-07T10:26:04;96185.25;;;11.47;49.29
33185;BME280;19550;42.872;25.494;2023-04-07T10:28:32;96188.56;;;11.32;50.03
33185;BME280;19550;42.872;25.494;2023-04-07T10:31:01;96191.50;;;11.36;49.21
33185;BME280;19550;42.872;25.494;2023-04-07T10:33:44;96190.81;;;11.47;48.04
33185;BME280;19550;42.872;25.494;2023-04-07T10:36:13;96196.09;;;11.87;47.52
33185;BME280;19550;42.872;25.494;2023-04-07T10:38:40;96180.75;;;12.10;47.66
33185;BME280;19550;42.872;25.494;2023-04-07T10:41:32;96188.88;;;11.48;49.11
33185;BME280;19550;42.872;25.494;2023-04-07T10:44:00;96196.75;;;11.29;49.15
33185;BME280;19550;42.872;25.494;2023-04-07T10:49:34;96172.84;;;11.91;50.51
33185;BME280;19550;42.872;25.494;2023-04-07T10:52:22;96177.78;;;11.86;50.07
33185;BME280;19550;42.872;25.494;2023-04-07T10:55:27;96189.03;;;11.43;49.44
33185;BME280;19550;42.872;25.494;2023-04-07T11:01:22;96176.63;;;11.40;50.34
33185;BME280;19550;42.872;25.494;2023-04-07T11:03:57;96179.22;;;11.45;51.09
33185;BME280;19550;42.872;25.494;2023-04-07T11:06:25;96176.88;;;11.65;50.52
33185;BME280;19550;42.872;25.494;2023-04-07T11:08:54;96188.25;;;11.89;49.62
33185;BME280;19550;42.872;25.494;2023-04-07T11:11:37;96180.34;;;11.53;49.75
33185;BME280;19550;42.872;25.494;2023-04-07T11:14:05;96179.84;;;11.60;49.19
33185;BME280;19550;42.872;25.494;2023-04-07T11:16:37;96180.94;;;11.76;49.12
33185;BME280;19550;42.872;25.494;2023-04-07T11:19:04;96185.25;;;11.56;48.82
33185;BME280;19550;42.872;25.494;2023-04-07T11:21:31;96173.47;;;11.50;49.04
33185;BME280;19550;42.872;25.494;2023-04-07T11:23:59;96179.63;;;11.73;48.81
33185;BME280;19550;42.872;25.494;2023-04-07T11:26:26;96183.22;;;11.82;50.48
33185;BME280;19550;42.872;25.494;2023-04-07T11:28:54;96187.78;;;11.78;49.33
33185;BME280;19550;42.872;25.494;2023-04-07T11:31:23;96182.72;;;11.72;48.77
33185;BME280;19550;42.872;25.494;2023-04-07T11:33:54;96189.78;;;11.69;49.10
33185;BME280;19550;42.872;25.494;2023-04-07T11:36:28;96198.50;;;11.42;47.77
33185;BME280;19550;42.872;25.494;2023-04-07T11:38:56;96187.91;;;11.35;48.61
33185;BME280;19550;42.872;25.494;2023-04-07T11:41:26;96194.72;;;11.46;49.67
33185;BME280;19550;42.872;25.494;2023-04-07T11:44:05;96192.44;;;11.48;49.55
33185;BME280;19550;42.872;25.494;2023-04-07T11:46:33;96191.47;;;11.44;50.28
33185;BME280;19550;42.872;25.494;2023-04-07T11:49:11;96192.66;;;11.26;51.73
33185;BME280;19550;42.872;25.494;2023-04-07T11:51:38;96187.44;;;11.25;51.83
33185;BME280;19550;42.872;25.494;2023-04-07T11:54:05;96191.53;;;11.27;52.69
33185;BME280;19550;42.872;25.494;2023-04-07T11:56:45;96198.56;;;11.16;52.67
33185;BME280;19550;42.872;25.494;2023-04-07T11:59:19;96203.50;;;11.02;53.72
33185;BME280;19550;42.872;25.494;2023-04-07T12:01:48;96217.69;;;10.92;53.91
33185;BME280;19550;42.872;25.494;2023-04-07T12:04:15;96218.16;;;10.85;54.64
33185;BME280;19550;42.872;25.494;2023-04-07T12:06:43;96222.75;;;10.90;54.81
33185;BME280;19550;42.872;25.494;2023-04-07T12:09:25;96217.69;;;10.83;55.19
33185;BME280;19550;42.872;25.494;2023-04-07T12:11:55;96211.16;;;10.96;56.64
33185;BME280;19550;42.872;25.494;2023-04-07T12:14:22;96220.13;;;11.02;57.30
33185;BME280;19550;42.872;25.494;2023-04-07T12:16:49;96226.97;;;11.13;56.96
33185;BME280;19550;42.872;25.494;2023-04-07T12:19:17;96220.44;;;11.00;57.55
33185;BME280;19550;42.872;25.494;2023-04-07T12:21:44;96223.03;;;11.23;58.51
33185;BME280;19550;42.872;25.494;2023-04-07T12:24:10;96233.28;;;11.31;57.65
33185;BME280;19550;42.872;25.494;2023-04-07T12:26:37;96227.78;;;11.22;56.24
33185;BME280;19550;42.872;25.494;2023-04-07T12:29:05;96232.00;;;11.11;57.35
33185;BME280;19550;42.872;25.494;2023-04-07T12:31:32;96225.53;;;10.90;56.47
33185;BME280;19550;42.872;25.494;2023-04-07T12:33:59;96239.38;;;10.72;58.66
33185;BME280;19550;42.872;25.494;2023-04-07T12:36:26;96227.97;;;10.65;58.03
33185;BME280;19550;42.872;25.494;2023-04-07T12:38:54;96241.81;;;10.74;59.55
33185;BME280;19550;42.872;25.494;2023-04-07T12:41:21;96234.31;;;10.74;59.35
33185;BME280;19550;42.872;25.494;2023-04-07T12:43:48;96235.31;;;10.61;59.56
33185;BME280;19550;42.872;25.494;2023-04-07T12:46:16;96240.19;;;10.73;59.26
33185;BME280;19550;42.872;25.494;2023-04-07T12:48:43;96248.81;;;10.71;59.86
33185;BME280;19550;42.872;25.494;2023-04-07T12:51:10;96255.53;;;10.88;58.55
33185;BME280;19550;42.872;25.494;2023-04-07T12:53:37;96263.03;;;10.61;59.30
33185;BME280;19550;42.872;25.494;2023-04-07T12:56:04;96271.34;;;10.61;59.17
33185;BME280;19550;42.872;25.494;2023-04-07T12:58:31;96266.09;;;10.51;60.07
33185;BME280;19550;42.872;25.494;2023-04-07T13:00:57;96272.56;;;10.38;60.18
33185;BME280;19550;42.872;25.494;2023-04-07T13:03:26;96272.75;;;10.33;61.12
33185;BME280;19550;42.872;25.494;2023-04-07T13:05:53;96280.69;;;10.26;60.70
33185;BME280;19550;42.872;25.494;2023-04-07T13:08:20;96278.25;;;10.24;61.17
33185;BME280;19550;42.872;25.494;2023-04-07T13:10:47;96289.66;;;10.23;60.92